sensor_id;sensor_type;location;lat;lon;timestamp;P1;durP1;ratioP1;P2;durP2;ratioP2
2564;SDS011;1292;48.020;7.822;2023-09-08T05:47:24;9.80;;;8.80;;
2564;SDS011;1292;48.020;7.822;2023-09-08T05:49:51;10.43;;;9.47;;
2564;SDS011;1292;48.020;7.822;2023-09-08T05:52:18;9.90;;;8.83;;
2564;SDS011;1292;48.020;7.822;2023-09-08T05:54:44;9.17;;;8.30;;
2564;SDS011;1292;48.020;7.822;2023-09-08T05:57:11;10.30;;;9.30;;
2564;SDS011;1292;48.020;7.822;2023-09-08T05:59:38;10.07;;;9.23;;
2564;SDS011;1292;48.020;7.822;2023-09-08T06:02:05;10.10;;;9.13;;
2564;SDS011;1292;48.020;7.822;2023-09-08T06:04:33;10.47;;;9.53;;
2564;SDS011;1292;48.020;7.822;2023-09-08T06:07:00;12.10;;;10.60;;
2564;SDS011;1292;48.020;7.822;2023-09-08T06:09:27;10.50;;;9.60;;
2564;SDS011;1292;48.020;7.822;2023-09-08T06:11:54;10.70;;;9.80;;
2564;SDS011;1292;48.020;7.822;2023-09-08T06:14:20;10.20;;;9.17;;
2564;SDS011;1292;48.020;7.822;2023-09-08T06:16:47;10.97;;;10.00;;
2564;SDS011;1292;48.020;7.822;2023-09-08T06:19:14;11.00;;;9.93;;
2564;SDS011;1292;48.020;7.822;2023-09-08T06:21:42;10.57;;;9.50;;
2564;SDS011;1292;48.020;7.822;2023-09-08T06:24:09;10.37;;;9.40;;
2564;SDS011;1292;48.020;7.822;2023-09-08T06:26:36;12.13;;;10.83;;
2564;SDS011;1292;48.020;7.822;2023-09-08T06:29:03;11.10;;;10.10;;
2564;SDS011;1292;48.020;7.822;2023-09-08T06:31:30;10.73;;;9.83;;
2564;SDS011;1292;48.020;7.822;2023-09-08T06:33:57;10.23;;;9.27;;
2564;SDS011;1292;48.020;7.822;2023-09-08T06:36:24;11.00;;;10.00;;
2564;SDS011;1292;48.020;7.822;2023-09-08T06:38:52;11.50;;;10.40;;
2564;SDS011;1292;48.020;7.822;2023-09-08T06:41:19;11.10;;;10.10;;
2564;SDS011;1292;48.020;7.822;2023-09-08T06:43:45;10.60;;;9.60;;
2564;SDS011;1292;48.020;7.822;2023-09-08T06:46:12;10.57;;;9.60;;
2564;SDS011;1292;48.020;7.822;2023-09-08T06:48:39;9.60;;;8.80;;
2564;SDS011;1292;48.020;7.822;2023-09-08T06:51:06;11.20;;;10.20;;
2564;SDS011;1292;48.020;7.822;2023-09-08T06:53:32;9.70;;;8.70;;
2564;SDS011;1292;48.020;7.822;2023-09-08T06:56:01;10.77;;;9.30;;
2564;SDS011;1292;48.020;7.822;2023-09-08T06:58:27;11.60;;;10.40;;
2564;SDS011;1292;48.020;7.822;2023-09-08T07:00:54;9.57;;;8.67;;
2564;SDS011;1292;48.020;7.822;2023-09-08T07:03:21;9.50;;;8.50;;
2564;SDS011;1292;48.020;7.822;2023-09-08T07:05:49;9.37;;;8.47;;
2564;SDS011;1292;48.020;7.822;2023-09-08T07:08:16;9.87;;;8.97;;
2564;SDS011;1292;48.020;7.822;2023-09-08T07:10:43;10.13;;;9.30;;
2564;SDS011;1292;48.020;7.822;2023-09-08T07:13:11;10.20;;;9.30;;
2564;SDS011;1292;48.020;7.822;2023-09-08T07:15:38;11.63;;;8.53;;
2564;SDS011;1292;48.020;7.822;2023-09-08T07:18:05;9.43;;;8.63;;
2564;SDS011;1292;48.020;7.822;2023-09-08T07:20:32;8.60;;;7.90;;
2564;SDS011;1292;48.020;7.822;2023-09-08T07:22:59;8.43;;;7.73;;
2564;SDS011;1292;48.020;7.822;2023-09-08T07:25:26;9.70;;;8.70;;
2564;SDS011;1292;48.020;7.822;2023-09-08T07:27:53;9.50;;;8.80;;
2564;SDS011;1292;48.020;7.822;2023-09-08T07:30:21;9.67;;;8.57;;
2564;SDS011;1292;48.020;7.822;2023-09-08T07:32:48;10.07;;;9.27;;
2564;SDS011;1292;48.020;7.822;2023-09-08T07:35:15;10.10;;;9.17;;
2564;SDS011;1292;48.020;7.822;2023-09-08T07:37:44;10.43;;;9.33;;
2564;SDS011;1292;48.020;7.822;2023-09-08T07:40:11;9.23;;;8.43;;
2564;SDS011;1292;48.020;7.822;2023-09-08T07:42:38;8.50;;;7.70;;
2564;SDS011;1292;48.020;7.822;2023-09-08T07:45:05;10.47;;;9.00;;
2564;SDS011;1292;48.020;7.822;2023-09-08T07:47:36;9.63;;;8.83;;
2564;SDS011;1292;48.020;7.822;2023-09-08T07:50:15;8.77;;;7.87;;
2564;SDS011;1292;48.020;7.822;2023-09-08T07:52:43;9.57;;;8.77;;
2564;SDS011;1292;48.020;7.822;2023-09-08T07:55:10;8.90;;;8.10;;
2564;SDS011;1292;48.020;7.822;2023-09-08T07:57:37;8.80;;;8.10;;
2564;SDS011;1292;48.020;7.822;2023-09-08T08:00:04;8.13;;;7.53;;
2564;SDS011;1292;48.020;7.822;2023-09-08T08:02:32;8.20;;;6.40;;
2564;SDS011;1292;48.020;7.822;2023-09-08T08:05:00;10.37;;;9.37;;
2564;SDS011;1292;48.020;7.822;2023-09-08T08:07:27;7.90;;;7.20;;
2564;SDS011;1292;48.020;7.822;2023-09-08T08:09:55;9.50;;;8.73;;
2564;SDS011;1292;48.020;7.822;2023-09-08T08:12:21;9.37;;;8.50;;
2564;SDS011;1292;48.020;7.822;2023-09-08T08:14:48;8.63;;;7.93;;
2564;SDS011;1292;48.020;7.822;2023-09-08T08:17:15;9.20;;;8.30;;
2564;SDS011;1292;48.020;7.822;2023-09-08T08:19:44;8.20;;;7.50;;
2564;SDS011;1292;48.020;7.822;2023-09-08T08:22:13;8.47;;;7.77;;
2564;SDS011;1292;48.020;7.822;2023-09-08T08:24:40;9.47;;;7.80;;
2564;SDS011;1292;48.020;7.822;2023-09-08T08:27:07;6.90;;;6.30;;
2564;SDS011;1292;48.020;7.822;2023-09-08T08:29:33;9.03;;;8.33;;
2564;SDS011;1292;48.020;7.822;2023-09-08T08:32:00;8.07;;;7.37;;
2564;SDS011;1292;48.020;7.822;2023-09-08T08:34:27;7.67;;;6.97;;
2564;SDS011;1292;48.020;7.822;2023-09-08T08:36:54;7.87;;;7.27;;
2564;SDS011;1292;48.020;7.822;2023-09-08T08:39:22;8.33;;;7.60;;
2564;SDS011;1292;48.020;7.822;2023-09-08T08:41:49;8.87;;;7.97;;
2564;SDS011;1292;48.020;7.822;2023-09-08T08:44:17;7.10;;;6.53;;
2564;SDS011;1292;48.020;7.822;2023-09-08T08:46:45;8.77;;;8.00;;
2564;SDS011;1292;48.020;7.822;2023-09-08T08:49:13;7.93;;;7.33;;
2564;SDS011;1292;48.020;7.822;2023-09-08T08:51:41;7.63;;;7.03;;
2564;SDS011;1292;48.020;7.822;2023-09-08T08:54:10;8.10;;;7.43;;
2564;SDS011;1292;48.020;7.822;2023-09-08T08:56:40;9.40;;;8.60;;
2564;SDS011;1292;48.020;7.822;2023-09-08T08:59:08;9.57;;;7.53;;
2564;SDS011;1292;48.020;7.822;2023-09-08T09:01:36;8.43;;;7.63;;
2564;SDS011;1292;48.020;7.822;2023-09-08T09:04:05;7.87;;;7.20;;
2564;SDS011;1292;48.020;7.822;2023-09-08T09:06:32;8.60;;;8.00;;
2564;SDS011;1292;48.020;7.822;2023-09-08T09:08:59;8.23;;;7.53;;
2564;SDS011;1292;48.020;7.822;2023-09-08T09:11:26;6.53;;;6.03;;
2564;SDS011;1292;48.020;7.822;2023-09-08T09:13:55;9.63;;;7.50;;
2564;SDS011;1292;48.020;7.822;2023-09-08T09:16:21;7.27;;;6.57;;
2564;SDS011;1292;48.020;7.822;2023-09-08T09:18:55;7.47;;;6.87;;
2564;SDS011;1292;48.020;7.822;2023-09-08T09:21:22;7.30;;;6.63;;
2564;SDS011;1292;48.020;7.822;2023-09-08T09:23:49;11.73;;;7.50;;
2564;SDS011;1292;48.020;7.822;2023-09-08T09:26:23;7.30;;;6.70;;
2564;SDS011;1292;48.020;7.822;2023-09-08T09:28:51;8.03;;;6.87;;
2564;SDS011;1292;48.020;7.822;2023-09-08T09:31:20;9.40;;;7.47;;
2564;SDS011;1292;48.020;7.822;2023-09-08T09:33:57;7.70;;;6.90;;
2564;SDS011;1292;48.020;7.822;2023-09-08T09:36:28;8.33;;;7.20;;
2564;SDS011;1292;48.020;7.822;2023-09-08T09:38:57;8.07;;;7.20;;
2564;SDS011;1292;48.020;7.822;2023-09-08T09:41:25;6.47;;;6.00;;
2564;SDS011;1292;48.020;7.822;2023-09-08T09:43:53;6.53;;;6.03;;
2564;SDS011;1292;48.020;7.822;2023-09-08T09:46:22;6.90;;;6.40;;
2564;SDS011;1292;48.020;7.822;2023-09-08T09:48:50;7.20;;;6.70;;
2564;SDS011;1292;48.020;7.822;2023-09-08T09:51:21;7.80;;;7.20;;
2564;SDS011;1292;48.020;7.822;2023-09-08T09:53:49;11.20;;;7.00;;
2564;SDS011;1292;48.020;7.822;2023-09-08T09:56:16;10.20;;;7.93;;
2564;SDS011;1292;48.020;7.822;2023-09-08T09:58:44;8.60;;;6.50;;
2564;SDS011;1292;48.020;7.822;2023-09-08T10:01:11;7.97;;;7.37;;
2564;SDS011;1292;48.020;7.822;2023-09-08T10:03:40;6.37;;;5.87;;
2564;SDS011;1292;48.020;7.822;2023-09-08T10:06:07;7.43;;;6.73;;
2564;SDS011;1292;48.020;7.822;2023-09-08T10:08:36;7.83;;;6.20;;
2564;SDS011;1292;48.020;7.822;2023-09-08T10:11:05;7.00;;;6.50;;
2564;SDS011;1292;48.020;7.822;2023-09-08T10:13:35;7.77;;;7.17;;
2564;SDS011;1292;48.020;7.822;2023-09-08T10:16:05;9.63;;;6.83;;
2564;SDS011;1292;48.020;7.822;2023-09-08T10:18:34;6.70;;;6.20;;
2564;SDS011;1292;48.020;7.822;2023-09-08T10:21:03;7.10;;;6.50;;
2564;SDS011;1292;48.020;7.822;2023-09-08T10:23:34;7.90;;;7.10;;
2564;SDS011;1292;48.020;7.822;2023-09-08T10:26:03;6.97;;;6.47;;
2564;SDS011;1292;48.020;7.822;2023-09-08T10:28:34;12.00;;;6.33;;
2564;SDS011;1292;48.020;7.822;2023-09-08T10:31:02;6.47;;;5.97;;
2564;SDS011;1292;48.020;7.822;2023-09-08T10:33:30;6.83;;;6.23;;
2564;SDS011;1292;48.020;7.822;2023-09-08T10:35:59;6.97;;;6.37;;
2564;SDS011;1292;48.020;7.822;2023-09-08T10:38:31;6.50;;;6.10;;
2564;SDS011;1292;48.020;7.822;2023-09-08T10:43:56;6.57;;;6.07;;
2564;SDS011;1292;48.020;7.822;2023-09-08T10:46:25;6.37;;;5.97;;
2564;SDS011;1292;48.020;7.822;2023-09-08T10:48:54;6.20;;;5.70;;
2564;SDS011;1292;48.020;7.822;2023-09-08T10:51:26;7.10;;;6.50;;
2564;SDS011;1292;48.020;7.822;2023-09-08T10:53:54;6.57;;;5.97;;
2564;SDS011;1292;48.020;7.822;2023-09-08T10:56:22;5.47;;;4.97;;
2564;SDS011;1292;48.020;7.822;2023-09-08T10:58:53;5.97;;;5.47;;
2564;SDS011;1292;48.020;7.822;2023-09-08T11:01:20;6.07;;;5.60;;
2564;SDS011;1292;48.020;7.822;2023-09-08T11:03:51;5.60;;;5.20;;
2564;SDS011;1292;48.020;7.822;2023-09-08T11:06:19;5.53;;;5.13;;
2564;SDS011;1292;48.020;7.822;2023-09-08T11:08:48;5.87;;;5.37;;
2564;SDS011;1292;48.020;7.822;2023-09-08T11:11:19;6.10;;;5.50;;
2564;SDS011;1292;48.020;7.822;2023-09-08T11:13:46;6.70;;;6.07;;
2564;SDS011;1292;48.020;7.822;2023-09-08T11:16:13;6.40;;;5.90;;
2564;SDS011;1292;48.020;7.822;2023-09-08T11:18:40;6.30;;;5.50;;
2564;SDS011;1292;48.020;7.822;2023-09-08T11:21:08;7.83;;;5.40;;
2564;SDS011;1292;48.020;7.822;2023-09-08T11:23:36;5.90;;;5.40;;
2564;SDS011;1292;48.020;7.822;2023-09-08T11:26:03;6.73;;;6.13;;
2564;SDS011;1292;48.020;7.822;2023-09-08T11:28:33;6.63;;;6.03;;
2564;SDS011;1292;48.020;7.822;2023-09-08T11:30:59;10.50;;;4.67;;
2564;SDS011;1292;48.020;7.822;2023-09-08T11:33:32;5.33;;;4.57;;
2564;SDS011;1292;48.020;7.822;2023-09-08T11:36:00;5.33;;;4.83;;
2564;SDS011;1292;48.020;7.822;2023-09-08T11:38:27;5.30;;;4.90;;
2564;SDS011;1292;48.020;7.822;2023-09-08T11:40:55;5.63;;;4.57;;
2564;SDS011;1292;48.020;7.822;2023-09-08T11:43:23;4.53;;;4.23;;
2564;SDS011;1292;48.020;7.822;2023-09-08T11:45:53;5.40;;;4.97;;
2564;SDS011;1292;48.020;7.822;2023-09-08T11:48:21;6.03;;;5.03;;
2564;SDS011;1292;48.020;7.822;2023-09-08T11:50:52;5.80;;;5.30;;
2564;SDS011;1292;48.020;7.822;2023-09-08T11:53:19;4.67;;;4.33;;
2564;SDS011;1292;48.020;7.822;2023-09-08T11:55:47;4.30;;;4.00;;
2564;SDS011;1292;48.020;7.822;2023-09-08T11:58:15;4.43;;;4.03;;
2564;SDS011;1292;48.020;7.822;2023-09-08T12:00:44;5.10;;;4.43;;
2564;SDS011;1292;48.020;7.822;2023-09-08T12:03:14;4.77;;;4.43;;
2564;SDS011;1292;48.020;7.822;2023-09-08T12:05:42;5.23;;;4.73;;
2564;SDS011;1292;48.020;7.822;2023-09-08T12:08:10;5.10;;;4.67;;
2564;SDS011;1292;48.020;7.822;2023-09-08T12:10:37;5.73;;;5.23;;
2564;SDS011;1292;48.020;7.822;2023-09-08T12:13:04;4.53;;;4.10;;
2564;SDS011;1292;48.020;7.822;2023-09-08T12:15:31;3.93;;;3.63;;
2564;SDS011;1292;48.020;7.822;2023-09-08T12:17:59;5.23;;;4.20;;
2564;SDS011;1292;48.020;7.822;2023-09-08T12:20:28;4.93;;;4.43;;
2564;SDS011;1292;48.020;7.822;2023-09-08T12:22:56;4.80;;;4.40;;
2564;SDS011;1292;48.020;7.822;2023-09-08T12:25:25;4.97;;;4.50;;
2564;SDS011;1292;48.020;7.822;2023-09-08T12:27:53;5.53;;;4.20;;
2564;SDS011;1292;48.020;7.822;2023-09-08T12:30:21;4.73;;;4.33;;
2564;SDS011;1292;48.020;7.822;2023-09-08T12:32:55;5.30;;;4.33;;
2564;SDS011;1292;48.020;7.822;2023-09-08T12:35:23;4.33;;;3.93;;
2564;SDS011;1292;48.020;7.822;2023-09-08T12:40:37;6.27;;;4.23;;
2564;SDS011;1292;48.020;7.822;2023-09-08T12:43:04;5.13;;;4.63;;
2564;SDS011;1292;48.020;7.822;2023-09-08T12:45:32;5.20;;;4.40;;
2564;SDS011;1292;48.020;7.822;2023-09-08T12:48:00;5.03;;;4.53;;
2564;SDS011;1292;48.020;7.822;2023-09-08T12:50:28;3.93;;;3.70;;
2564;SDS011;1292;48.020;7.822;2023-09-08T12:52:55;4.70;;;4.40;;
2564;SDS011;1292;48.020;7.822;2023-09-08T12:55:24;7.30;;;4.80;;
2564;SDS011;1292;48.020;7.822;2023-09-08T12:57:51;4.60;;;4.13;;
2564;SDS011;1292;48.020;7.822;2023-09-08T13:00:19;4.43;;;4.13;;
2564;SDS011;1292;48.020;7.822;2023-09-08T13:02:48;5.10;;;4.70;;
2564;SDS011;1292;48.020;7.822;2023-09-08T13:05:15;5.43;;;4.00;;
2564;SDS011;1292;48.020;7.822;2023-09-08T13:07:42;5.33;;;4.83;;
2564;SDS011;1292;48.020;7.822;2023-09-08T13:10:09;6.30;;;4.33;;
2564;SDS011;1292;48.020;7.822;2023-09-08T13:12:37;5.90;;;4.60;;
2564;SDS011;1292;48.020;7.822;2023-09-08T13:15:04;4.83;;;4.43;;
2564;SDS011;1292;48.020;7.822;2023-09-08T13:17:31;5.00;;;3.80;;
2564;SDS011;1292;48.020;7.822;2023-09-08T13:19:58;4.70;;;3.93;;
2564;SDS011;1292;48.020;7.822;2023-09-08T13:22:25;4.83;;;4.43;;
2564;SDS011;1292;48.020;7.822;2023-09-08T13:24:52;7.20;;;4.60;;
2564;SDS011;1292;48.020;7.822;2023-09-08T13:27:20;5.00;;;4.53;;
2564;SDS011;1292;48.020;7.822;2023-09-08T13:29:48;4.70;;;4.30;;
2564;SDS011;1292;48.020;7.822;2023-09-08T13:32:14;5.50;;;4.30;;
2564;SDS011;1292;48.020;7.822;2023-09-08T13:34:41;4.20;;;3.80;;
2564;SDS011;1292;48.020;7.822;2023-09-08T13:37:09;4.20;;;3.90;;
2564;SDS011;1292;48.020;7.822;2023-09-08T13:39:36;5.50;;;4.27;;
2564;SDS011;1292;48.020;7.822;2023-09-08T13:42:03;10.30;;;4.80;;
2564;SDS011;1292;48.020;7.822;2023-09-08T13:44:30;3.53;;;3.23;;
2564;SDS011;1292;48.020;7.822;2023-09-08T13:46:58;4.47;;;4.07;;
2564;SDS011;1292;48.020;7.822;2023-09-08T13:49:25;3.53;;;3.23;;
2564;SDS011;1292;48.020;7.822;2023-09-08T13:51:52;4.03;;;3.73;;
2564;SDS011;1292;48.020;7.822;2023-09-08T13:54:19;4.33;;;3.10;;
2564;SDS011;1292;48.020;7.822;2023-09-08T13:56:56;5.93;;;3.40;;
2564;SDS011;1292;48.020;7.822;2023-09-08T13:59:25;9.57;;;3.40;;
2564;SDS011;1292;48.020;7.822;2023-09-08T14:01:53;3.97;;;3.67;;
2564;SDS011;1292;48.020;7.822;2023-09-08T14:04:22;3.80;;;3.23;;
2564;SDS011;1292;48.020;7.822;2023-09-08T14:06:48;6.53;;;3.40;;
2564;SDS011;1292;48.020;7.822;2023-09-08T14:09:15;4.60;;;4.10;;
2564;SDS011;1292;48.020;7.822;2023-09-08T14:11:42;3.50;;;3.23;;
2564;SDS011;1292;48.020;7.822;2023-09-08T14:14:09;4.37;;;3.50;;
2564;SDS011;1292;48.020;7.822;2023-09-08T14:16:36;10.00;;;4.30;;
2564;SDS011;1292;48.020;7.822;2023-09-08T14:19:03;3.67;;;3.47;;
2564;SDS011;1292;48.020;7.822;2023-09-08T14:21:31;5.37;;;3.60;;
2564;SDS011;1292;48.020;7.822;2023-09-08T14:23:58;4.33;;;3.93;;
2564;SDS011;1292;48.020;7.822;2023-09-08T14:26:25;4.10;;;3.70;;
2564;SDS011;1292;48.020;7.822;2023-09-08T14:28:51;9.73;;;4.10;;
2564;SDS011;1292;48.020;7.822;2023-09-08T14:31:19;4.37;;;3.10;;
2564;SDS011;1292;48.020;7.822;2023-09-08T14:33:45;3.77;;;3.10;;
2564;SDS011;1292;48.020;7.822;2023-09-08T14:36:16;3.73;;;3.33;;
2564;SDS011;1292;48.020;7.822;2023-09-08T14:38:44;3.87;;;3.10;;
2564;SDS011;1292;48.020;7.822;2023-09-08T14:41:11;4.03;;;2.97;;
2564;SDS011;1292;48.020;7.822;2023-09-08T14:43:39;3.73;;;3.07;;
2564;SDS011;1292;48.020;7.822;2023-09-08T14:46:06;3.77;;;3.47;;
2564;SDS011;1292;48.020;7.822;2023-09-08T14:48:32;3.30;;;3.00;;
2564;SDS011;1292;48.020;7.822;2023-09-08T14:51:01;4.17;;;3.77;;
2564;SDS011;1292;48.020;7.822;2023-09-08T14:53:28;5.17;;;3.70;;
2564;SDS011;1292;48.020;7.822;2023-09-08T14:55:57;6.00;;;3.10;;
2564;SDS011;1292;48.020;7.822;2023-09-08T14:58:24;4.93;;;3.50;;
2564;SDS011;1292;48.020;7.822;2023-09-08T15:00:57;5.30;;;3.60;;
2564;SDS011;1292;48.020;7.822;2023-09-08T15:03:24;8.03;;;3.37;;
2564;SDS011;1292;48.020;7.822;2023-09-08T15:05:51;5.97;;;3.30;;
2564;SDS011;1292;48.020;7.822;2023-09-08T15:08:18;3.40;;;3.10;;
2564;SDS011;1292;48.020;7.822;2023-09-08T15:10:45;4.93;;;3.80;;
2564;SDS011;1292;48.020;7.822;2023-09-08T15:13:13;5.07;;;3.50;;
2564;SDS011;1292;48.020;7.822;2023-09-08T15:15:40;3.93;;;3.53;;
2564;SDS011;1292;48.020;7.822;2023-09-08T15:18:06;4.33;;;3.20;;
2564;SDS011;1292;48.020;7.822;2023-09-08T15:20:33;4.17;;;3.60;;
2564;SDS011;1292;48.020;7.822;2023-09-08T15:23:00;5.53;;;3.93;;
2564;SDS011;1292;48.020;7.822;2023-09-08T15:25:27;3.60;;;3.30;;
2564;SDS011;1292;48.020;7.822;2023-09-08T15:27:54;10.03;;;4.03;;
2564;SDS011;1292;48.020;7.822;2023-09-08T15:30:23;6.03;;;2.97;;
2564;SDS011;1292;48.020;7.822;2023-09-08T15:32:49;5.23;;;3.43;;
2564;SDS011;1292;48.020;7.822;2023-09-08T15:35:16;5.00;;;3.10;;
2564;SDS011;1292;48.020;7.822;2023-09-08T15:37:43;4.27;;;3.97;;
2564;SDS011;1292;48.020;7.822;2023-09-08T15:40:10;4.13;;;3.27;;
2564;SDS011;1292;48.020;7.822;2023-09-08T15:42:39;7.40;;;3.57;;
2564;SDS011;1292;48.020;7.822;2023-09-08T15:45:06;5.47;;;3.40;;
2564;SDS011;1292;48.020;7.822;2023-09-08T15:47:36;3.90;;;3.47;;
2564;SDS011;1292;48.020;7.822;2023-09-08T15:50:03;8.03;;;3.97;;
2564;SDS011;1292;48.020;7.822;2023-09-08T15:52:33;5.70;;;3.60;;
2564;SDS011;1292;48.020;7.822;2023-09-08T15:55:00;4.73;;;3.30;;
2564;SDS011;1292;48.020;7.822;2023-09-08T15:57:27;7.10;;;3.40;;
2564;SDS011;1292;48.020;7.822;2023-09-08T15:59:54;4.67;;;3.37;;
2564;SDS011;1292;48.020;7.822;2023-09-08T16:02:21;5.20;;;3.80;;
2564;SDS011;1292;48.020;7.822;2023-09-08T16:04:49;3.30;;;2.70;;
2564;SDS011;1292;48.020;7.822;2023-09-08T16:07:16;3.77;;;3.47;;
2564;SDS011;1292;48.020;7.822;2023-09-08T16:09:42;10.37;;;3.97;;
2564;SDS011;1292;48.020;7.822;2023-09-08T16:12:09;4.50;;;3.80;;
2564;SDS011;1292;48.020;7.822;2023-09-08T16:14:36;5.37;;;3.23;;
2564;SDS011;1292;48.020;7.822;2023-09-08T16:17:03;3.90;;;3.50;;
2564;SDS011;1292;48.020;7.822;2023-09-08T16:19:30;5.47;;;3.30;;
2564;SDS011;1292;48.020;7.822;2023-09-08T16:21:58;10.60;;;4.37;;
2564;SDS011;1292;48.020;7.822;2023-09-08T16:24:24;4.60;;;3.50;;
2564;SDS011;1292;48.020;7.822;2023-09-08T16:26:51;3.87;;;3.57;;
2564;SDS011;1292;48.020;7.822;2023-09-08T16:29:18;6.60;;;4.13;;
2564;SDS011;1292;48.020;7.822;2023-09-08T16:31:45;4.60;;;4.20;;
2564;SDS011;1292;48.020;7.822;2023-09-08T16:34:12;5.30;;;3.67;;
2564;SDS011;1292;48.020;7.822;2023-09-08T16:36:39;6.33;;;3.70;;
2564;SDS011;1292;48.020;7.822;2023-09-08T16:39:07;5.80;;;4.00;;
2564;SDS011;1292;48.020;7.822;2023-09-08T16:41:33;5.30;;;3.60;;
2564;SDS011;1292;48.020;7.822;2023-09-08T16:44:00;3.40;;;3.10;;
2564;SDS011;1292;48.020;7.822;2023-09-08T16:46:27;6.90;;;3.80;;
2564;SDS011;1292;48.020;7.822;2023-09-08T16:48:54;4.27;;;3.50;;
2564;SDS011;1292;48.020;7.822;2023-09-08T16:51:21;4.77;;;4.33;;
2564;SDS011;1292;48.020;7.822;2023-09-08T16:53:47;3.77;;;3.33;;
2564;SDS011;1292;48.020;7.822;2023-09-08T16:56:15;4.53;;;4.20;;
2564;SDS011;1292;48.020;7.822;2023-09-08T16:58:42;6.23;;;4.60;;
2564;SDS011;1292;48.020;7.822;2023-09-08T17:01:09;5.70;;;4.80;;
2564;SDS011;1292;48.020;7.822;2023-09-08T17:03:36;6.10;;;4.17;;
2564;SDS011;1292;48.020;7.822;2023-09-08T17:06:02;8.40;;;4.43;;
2564;SDS011;1292;48.020;7.822;2023-09-08T17:08:29;5.07;;;4.57;;
2564;SDS011;1292;48.020;7.822;2023-09-08T17:10:56;4.60;;;4.20;;
2564;SDS011;1292;48.020;7.822;2023-09-08T17:13:30;4.10;;;3.80;;
2564;SDS011;1292;48.020;7.822;2023-09-08T17:15:58;5.37;;;4.10;;
2564;SDS011;1292;48.020;7.822;2023-09-08T17:18:25;7.17;;;4.80;;
2564;SDS011;1292;48.020;7.822;2023-09-08T17:20:52;5.60;;;4.40;;
2564;SDS011;1292;48.020;7.822;2023-09-08T17:23:21;4.53;;;4.10;;
2564;SDS011;1292;48.020;7.822;2023-09-08T17:25:48;5.80;;;4.70;;
2564;SDS011;1292;48.020;7.822;2023-09-08T17:28:16;4.57;;;4.07;;
2564;SDS011;1292;48.020;7.822;2023-09-08T17:30:45;6.63;;;4.40;;
2564;SDS011;1292;48.020;7.822;2023-09-08T17:33:12;5.90;;;4.27;;
2564;SDS011;1292;48.020;7.822;2023-09-08T17:35:40;4.93;;;4.53;;
2564;SDS011;1292;48.020;7.822;2023-09-08T17:38:07;6.13;;;4.40;;
2564;SDS011;1292;48.020;7.822;2023-09-08T17:40:34;5.30;;;4.30;;
2564;SDS011;1292;48.020;7.822;2023-09-08T17:43:01;5.43;;;4.00;;
2564;SDS011;1292;48.020;7.822;2023-09-08T17:45:28;7.00;;;5.60;;
2564;SDS011;1292;48.020;7.822;2023-09-08T17:47:56;12.73;;;4.57;;
2564;SDS011;1292;48.020;7.822;2023-09-08T17:50:23;4.83;;;4.30;;
2564;SDS011;1292;48.020;7.822;2023-09-08T17:52:50;4.93;;;3.87;;
2564;SDS011;1292;48.020;7.822;2023-09-08T17:55:17;8.40;;;5.50;;
2564;SDS011;1292;48.020;7.822;2023-09-08T17:57:44;11.57;;;5.00;;
2564;SDS011;1292;48.020;7.822;2023-09-08T18:00:11;5.10;;;4.70;;
2564;SDS011;1292;48.020;7.822;2023-09-08T18:02:38;6.77;;;4.80;;
2564;SDS011;1292;48.020;7.822;2023-09-08T18:05:07;5.00;;;4.50;;
2564;SDS011;1292;48.020;7.822;2023-09-08T18:07:34;5.47;;;4.93;;
2564;SDS011;1292;48.020;7.822;2023-09-08T18:10:02;5.80;;;4.77;;
2564;SDS011;1292;48.020;7.822;2023-09-08T18:12:29;5.30;;;4.80;;
2564;SDS011;1292;48.020;7.822;2023-09-08T18:14:56;5.43;;;4.30;;
2564;SDS011;1292;48.020;7.822;2023-09-08T18:17:22;6.73;;;4.57;;
2564;SDS011;1292;48.020;7.822;2023-09-08T18:19:49;9.70;;;4.00;;
2564;SDS011;1292;48.020;7.822;2023-09-08T18:22:18;4.70;;;4.30;;
2564;SDS011;1292;48.020;7.822;2023-09-08T18:24:45;4.40;;;4.00;;
2564;SDS011;1292;48.020;7.822;2023-09-08T18:27:11;7.10;;;5.70;;
2564;SDS011;1292;48.020;7.822;2023-09-08T18:29:38;7.80;;;5.33;;
2564;SDS011;1292;48.020;7.822;2023-09-08T18:32:07;4.87;;;4.27;;
2564;SDS011;1292;48.020;7.822;2023-09-08T18:34:34;5.23;;;4.67;;
2564;SDS011;1292;48.020;7.822;2023-09-08T18:37:01;5.80;;;4.70;;
2564;SDS011;1292;48.020;7.822;2023-09-08T18:39:29;5.80;;;5.33;;
2564;SDS011;1292;48.020;7.822;2023-09-08T18:41:56;5.53;;;5.03;;
2564;SDS011;1292;48.020;7.822;2023-09-08T18:44:23;7.93;;;5.37;;
2564;SDS011;1292;48.020;7.822;2023-09-08T18:46:52;5.83;;;4.40;;
2564;SDS011;1292;48.020;7.822;2023-09-08T18:49:19;5.47;;;4.23;;
2564;SDS011;1292;48.020;7.822;2023-09-08T18:51:47;5.70;;;5.20;;
2564;SDS011;1292;48.020;7.822;2023-09-08T18:54:14;5.67;;;5.03;;
2564;SDS011;1292;48.020;7.822;2023-09-08T18:56:42;9.07;;;5.20;;
2564;SDS011;1292;48.020;7.822;2023-09-08T18:59:09;7.50;;;5.90;;
2564;SDS011;1292;48.020;7.822;2023-09-08T19:01:36;6.70;;;6.10;;
2564;SDS011;1292;48.020;7.822;2023-09-08T19:04:04;6.03;;;4.87;;
2564;SDS011;1292;48.020;7.822;2023-09-08T19:06:32;5.47;;;4.77;;
2564;SDS011;1292;48.020;7.822;2023-09-08T19:08:59;5.67;;;4.33;;
2564;SDS011;1292;48.020;7.822;2023-09-08T19:11:27;4.43;;;4.03;;
2564;SDS011;1292;48.020;7.822;2023-09-08T19:13:55;6.60;;;5.50;;
2564;SDS011;1292;48.020;7.822;2023-09-08T19:16:22;4.97;;;4.57;;
2564;SDS011;1292;48.020;7.822;2023-09-08T19:18:49;5.50;;;4.30;;
2564;SDS011;1292;48.020;7.822;2023-09-08T19:21:16;5.90;;;4.67;;
2564;SDS011;1292;48.020;7.822;2023-09-08T19:23:43;5.30;;;4.80;;
2564;SDS011;1292;48.020;7.822;2023-09-08T19:26:10;6.00;;;5.50;;
2564;SDS011;1292;48.020;7.822;2023-09-08T19:28:37;5.00;;;4.50;;
2564;SDS011;1292;48.020;7.822;2023-09-08T19:31:05;5.90;;;5.30;;
2564;SDS011;1292;48.020;7.822;2023-09-08T19:33:32;5.87;;;5.20;;
2564;SDS011;1292;48.020;7.822;2023-09-08T19:36:00;7.13;;;5.17;;
2564;SDS011;1292;48.020;7.822;2023-09-08T19:38:27;4.77;;;4.37;;
2564;SDS011;1292;48.020;7.822;2023-09-08T19:41:00;6.70;;;5.63;;
2564;SDS011;1292;48.020;7.822;2023-09-08T19:43:28;5.47;;;4.97;;
2564;SDS011;1292;48.020;7.822;2023-09-08T19:45:59;13.10;;;5.10;;
2564;SDS011;1292;48.020;7.822;2023-09-08T19:48:28;6.10;;;5.50;;
2564;SDS011;1292;48.020;7.822;2023-09-08T19:50:56;7.07;;;6.07;;
2564;SDS011;1292;48.020;7.822;2023-09-08T19:53:22;8.20;;;5.77;;
2564;SDS011;1292;48.020;7.822;2023-09-08T19:55:49;9.27;;;6.80;;
2564;SDS011;1292;48.020;7.822;2023-09-08T19:58:17;9.47;;;8.30;;
2564;SDS011;1292;48.020;7.822;2023-09-08T20:00:44;11.10;;;9.97;;
2564;SDS011;1292;48.020;7.822;2023-09-08T20:03:11;19.17;;;16.23;;
2564;SDS011;1292;48.020;7.822;2023-09-08T20:05:42;31.20;;;24.13;;
2564;SDS011;1292;48.020;7.822;2023-09-08T20:08:09;12.90;;;10.77;;
2564;SDS011;1292;48.020;7.822;2023-09-08T20:10:36;10.40;;;9.50;;
2564;SDS011;1292;48.020;7.822;2023-09-08T20:13:03;14.23;;;10.50;;
2564;SDS011;1292;48.020;7.822;2023-09-08T20:15:30;9.80;;;8.80;;
2564;SDS011;1292;48.020;7.822;2023-09-08T20:17:57;12.67;;;7.83;;
2564;SDS011;1292;48.020;7.822;2023-09-08T20:20:25;10.20;;;7.73;;
2564;SDS011;1292;48.020;7.822;2023-09-08T20:22:53;7.50;;;5.80;;
2564;SDS011;1292;48.020;7.822;2023-09-08T20:25:20;8.17;;;6.00;;
2564;SDS011;1292;48.020;7.822;2023-09-08T20:27:47;7.17;;;5.23;;
2564;SDS011;1292;48.020;7.822;2023-09-08T20:30:14;9.00;;;6.47;;
2564;SDS011;1292;48.020;7.822;2023-09-08T20:32:41;8.87;;;6.50;;
2564;SDS011;1292;48.020;7.822;2023-09-08T20:35:08;8.83;;;5.67;;
2564;SDS011;1292;48.020;7.822;2023-09-08T20:37:35;5.73;;;5.23;;
2564;SDS011;1292;48.020;7.822;2023-09-08T20:40:03;7.30;;;6.10;;
2564;SDS011;1292;48.020;7.822;2023-09-08T20:42:31;6.17;;;5.67;;
2564;SDS011;1292;48.020;7.822;2023-09-08T20:44:58;6.53;;;5.80;;
2564;SDS011;1292;48.020;7.822;2023-09-08T20:47:25;8.33;;;5.67;;
2564;SDS011;1292;48.020;7.822;2023-09-08T20:49:54;6.90;;;6.30;;
2564;SDS011;1292;48.020;7.822;2023-09-08T20:52:21;9.33;;;8.53;;
2564;SDS011;1292;48.020;7.822;2023-09-08T20:54:48;9.13;;;8.20;;
2564;SDS011;1292;48.020;7.822;2023-09-08T20:57:16;9.90;;;6.33;;
2564;SDS011;1292;48.020;7.822;2023-09-08T20:59:43;10.33;;;7.43;;
2564;SDS011;1292;48.020;7.822;2023-09-08T21:02:10;7.83;;;7.20;;
2564;SDS011;1292;48.020;7.822;2023-09-08T21:04:37;8.67;;;7.77;;
2564;SDS011;1292;48.020;7.822;2023-09-08T21:07:04;7.23;;;6.70;;